Airfield :
LOGIN :

Register | Disclaimer

   EN    FR    IT 

 










Legend :    VFR   Marginal VFR   IFR   Intensive IFR   Very Intensive IFR
Visi :
Ceiling :
>= 8 km
>= 3000ft
5 to 8 km
1000 to 3000 ft
1500m to 5 km
500 to 1000 ft
800 to 1500m
200 to 500 ft
< 800m
< 200 ft
Symbols :   Thunderstorms  Fog  Heavy snow  Heavy precipitations  Wind > 20 kt
SIGMETs :     Misc.  Thunderstorms  Icing  Turbulence  Mountain Waves  Volcanic Ashes






- Airport Elevation : 82 ft
- IATA code : ALG


DAAG - Alger Houari Boumedienne

CURRENT METAR :
  • 110000Z 24003KT 9999 FEW023 08/08 Q1024

EXPIRED METARs :
  • 102330Z 24003KT 9999 FEW023 08/08 Q1024
  • 102300Z 17001KT 9999 FEW023 08/07 Q1025
  • 102230Z 17002KT 9999 FEW023 08/07 Q1025
  • 102200Z 21001KT 9999 FEW023 09/08 Q1025
  • 102130Z 20003KT 9999 FEW023 09/08 Q1025

TAF TAF DAAG
Valid from the 11 at 00:00 until the 12 at 00:00 UTC


102300Z 1100/1124 VRB02KT 9999 FEW023
PROB30
TEMPO 1100/1106 5000 BR
BECMG 1110/1113 30010KT
PROB40
TEMPO 1119/1124 30015G25KT 5000 -RA FEW023TCU FEW030CB



MET'MAP, your aeronautical weather chart ! - Copyright ORBIFLY December 2007 - Disclaimer

ORBIFLY MET'MAP TEAM :

Programming & Development : Alexandra Zaïnal
Concept & original design : Baudouin d'Aumeries
Assistance for programming : Marc-Olivier Méhu
Technical & hardware support : Manuel Goepfert

Contact : metmap@orbifly.com




SOURCES & CREDITS :

   NOAA